sensor_id;sensor_type;location;lat;lon;timestamp;temperature;humidity
26907;DHT22;14472;56.880;16.658;2023-09-19T00:00:37;20.20;99.90
26907;DHT22;14472;56.880;16.658;2023-09-19T00:03:03;20.20;99.90
26907;DHT22;14472;56.880;16.658;2023-09-19T00:05:33;20.20;99.90
26907;DHT22;14472;56.880;16.658;2023-09-19T00:08:01;20.20;99.90
26907;DHT22;14472;56.880;16.658;2023-09-19T00:10:28;20.20;99.90
26907;DHT22;14472;56.880;16.658;2023-09-19T00:13:00;20.20;99.90
26907;DHT22;14472;56.880;16.658;2023-09-19T00:15:27;20.20;99.90
26907;DHT22;14472;56.880;16.658;2023-09-19T00:17:56;20.20;99.90
26907;DHT22;14472;56.880;16.658;2023-09-19T00:20:22;20.20;99.90
26907;DHT22;14472;56.880;16.658;2023-09-19T00:22:49;20.20;99.90
26907;DHT22;14472;56.880;16.658;2023-09-19T00:25:22;20.20;99.90
26907;DHT22;14472;56.880;16.658;2023-09-19T00:27:48;20.20;99.90
26907;DHT22;14472;56.880;16.658;2023-09-19T00:30:15;20.20;99.90
26907;DHT22;14472;56.880;16.658;2023-09-19T00:32:46;20.20;99.90
26907;DHT22;14472;56.880;16.658;2023-09-19T00:35:15;20.20;99.90
26907;DHT22;14472;56.880;16.658;2023-09-19T00:37:41;20.20;99.90
26907;DHT22;14472;56.880;16.658;2023-09-19T00:40:08;20.20;99.90
26907;DHT22;14472;56.880;16.658;2023-09-19T00:42:41;20.20;99.90
26907;DHT22;14472;56.880;16.658;2023-09-19T00:45:08;20.20;99.90
26907;DHT22;14472;56.880;16.658;2023-09-19T00:47:36;20.20;99.90
26907;DHT22;14472;56.880;16.658;2023-09-19T00:50:04;20.10;99.90
26907;DHT22;14472;56.880;16.658;2023-09-19T00:52:34;20.10;99.90
26907;DHT22;14472;56.880;16.658;2023-09-19T00:55:02;20.10;99.90
26907;DHT22;14472;56.880;16.658;2023-09-19T00:57:29;20.10;99.90
26907;DHT22;14472;56.880;16.658;2023-09-19T00:59:58;20.10;99.90
26907;DHT22;14472;56.880;16.658;2023-09-19T01:02:25;20.10;99.90
26907;DHT22;14472;56.880;16.658;2023-09-19T01:04:54;20.10;99.90
26907;DHT22;14472;56.880;16.658;2023-09-19T01:07:20;20.10;99.90
26907;DHT22;14472;56.880;16.658;2023-09-19T01:09:48;20.10;99.90
26907;DHT22;14472;56.880;16.658;2023-09-19T01:12:17;20.10;99.90
26907;DHT22;14472;56.880;16.658;2023-09-19T01:15:03;20.10;99.90
26907;DHT22;14472;56.880;16.658;2023-09-19T01:17:45;20.00;99.90
26907;DHT22;14472;56.880;16.658;2023-09-19T01:20:25;20.10;99.90
26907;DHT22;14472;56.880;16.658;2023-09-19T01:31:04;20.00;99.90
26907;DHT22;14472;56.880;16.658;2023-09-19T01:33:53;20.00;99.90
26907;DHT22;14472;56.880;16.658;2023-09-19T01:36:23;20.00;99.90
26907;DHT22;14472;56.880;16.658;2023-09-19T01:38:50;20.00;99.90
26907;DHT22;14472;56.880;16.658;2023-09-19T01:41:30;20.00;99.90
26907;DHT22;14472;56.880;16.658;2023-09-19T01:44:00;20.00;99.90
26907;DHT22;14472;56.880;16.658;2023-09-19T01:46:33;20.00;99.90
26907;DHT22;14472;56.880;16.658;2023-09-19T01:49:35;20.00;99.90
26907;DHT22;14472;56.880;16.658;2023-09-19T01:52:11;20.00;99.90
26907;DHT22;14472;56.880;16.658;2023-09-19T01:54:52;19.90;99.90
26907;DHT22;14472;56.880;16.658;2023-09-19T01:57:40;19.90;99.90
26907;DHT22;14472;56.880;16.658;2023-09-19T02:00:11;19.90;99.90
26907;DHT22;14472;56.880;16.658;2023-09-19T02:02:46;19.90;99.90
26907;DHT22;14472;56.880;16.658;2023-09-19T02:05:13;19.90;99.90
26907;DHT22;14472;56.880;16.658;2023-09-19T02:07:39;19.90;99.90
26907;DHT22;14472;56.880;16.658;2023-09-19T02:10:06;19.90;99.90
26907;DHT22;14472;56.880;16.658;2023-09-19T02:12:33;19.90;99.90
26907;DHT22;14472;56.880;16.658;2023-09-19T02:15:00;19.90;99.90
26907;DHT22;14472;56.880;16.658;2023-09-19T02:17:25;19.90;99.90
26907;DHT22;14472;56.880;16.658;2023-09-19T02:19:55;19.90;99.90
26907;DHT22;14472;56.880;16.658;2023-09-19T02:22:21;19.90;99.90
26907;DHT22;14472;56.880;16.658;2023-09-19T02:24:48;19.90;99.90
26907;DHT22;14472;56.880;16.658;2023-09-19T02:27:14;19.90;99.90
26907;DHT22;14472;56.880;16.658;2023-09-19T02:29:42;19.90;99.90
26907;DHT22;14472;56.880;16.658;2023-09-19T02:32:07;19.90;99.90
26907;DHT22;14472;56.880;16.658;2023-09-19T02:34:35;19.90;99.90
26907;DHT22;14472;56.880;16.658;2023-09-19T02:37:03;19.90;99.90
26907;DHT22;14472;56.880;16.658;2023-09-19T02:39:34;19.90;99.90
26907;DHT22;14472;56.880;16.658;2023-09-19T02:42:00;19.80;99.90
26907;DHT22;14472;56.880;16.658;2023-09-19T02:44:26;19.80;99.90
26907;DHT22;14472;56.880;16.658;2023-09-19T02:46:53;19.90;99.90
26907;DHT22;14472;56.880;16.658;2023-09-19T02:49:18;19.80;99.90
26907;DHT22;14472;56.880;16.658;2023-09-19T02:51:45;19.90;99.90
26907;DHT22;14472;56.880;16.658;2023-09-19T02:54:11;19.80;99.90
26907;DHT22;14472;56.880;16.658;2023-09-19T02:56:37;19.90;99.90
26907;DHT22;14472;56.880;16.658;2023-09-19T02:59:03;19.90;99.90
26907;DHT22;14472;56.880;16.658;2023-09-19T03:01:29;19.80;99.90
26907;DHT22;14472;56.880;16.658;2023-09-19T03:03:55;19.90;99.90
26907;DHT22;14472;56.880;16.658;2023-09-19T03:06:21;19.90;99.90
26907;DHT22;14472;56.880;16.658;2023-09-19T03:08:47;19.90;99.90
26907;DHT22;14472;56.880;16.658;2023-09-19T03:11:15;19.90;99.90
26907;DHT22;14472;56.880;16.658;2023-09-19T03:13:44;19.90;99.90
26907;DHT22;14472;56.880;16.658;2023-09-19T03:16:11;19.90;99.90
26907;DHT22;14472;56.880;16.658;2023-09-19T03:18:37;19.90;99.90
26907;DHT22;14472;56.880;16.658;2023-09-19T03:21:03;19.90;99.90
26907;DHT22;14472;56.880;16.658;2023-09-19T03:23:29;19.90;99.90
26907;DHT22;14472;56.880;16.658;2023-09-19T03:25:55;19.90;99.90
26907;DHT22;14472;56.880;16.658;2023-09-19T03:28:22;19.90;99.90
26907;DHT22;14472;56.880;16.658;2023-09-19T03:31:05;19.90;99.90
26907;DHT22;14472;56.880;16.658;2023-09-19T03:33:31;19.90;99.90
26907;DHT22;14472;56.880;16.658;2023-09-19T03:35:58;19.90;99.90
26907;DHT22;14472;56.880;16.658;2023-09-19T03:38:25;19.90;99.90
26907;DHT22;14472;56.880;16.658;2023-09-19T03:40:51;19.90;99.90
26907;DHT22;14472;56.880;16.658;2023-09-19T03:43:17;19.90;99.90
26907;DHT22;14472;56.880;16.658;2023-09-19T03:45:43;19.90;99.90
26907;DHT22;14472;56.880;16.658;2023-09-19T03:48:09;19.90;99.90
26907;DHT22;14472;56.880;16.658;2023-09-19T03:50:35;19.90;99.90
26907;DHT22;14472;56.880;16.658;2023-09-19T03:53:01;19.90;99.90
26907;DHT22;14472;56.880;16.658;2023-09-19T03:55:27;19.90;99.90
26907;DHT22;14472;56.880;16.658;2023-09-19T03:57:53;19.90;99.90
26907;DHT22;14472;56.880;16.658;2023-09-19T04:00:19;19.90;99.90
26907;DHT22;14472;56.880;16.658;2023-09-19T04:02:48;19.90;99.90
26907;DHT22;14472;56.880;16.658;2023-09-19T04:05:14;19.90;99.90
26907;DHT22;14472;56.880;16.658;2023-09-19T04:07:39;19.90;99.90
26907;DHT22;14472;56.880;16.658;2023-09-19T04:10:05;19.90;99.90
26907;DHT22;14472;56.880;16.658;2023-09-19T04:12:34;19.80;99.90
26907;DHT22;14472;56.880;16.658;2023-09-19T04:15:00;19.80;99.90
26907;DHT22;14472;56.880;16.658;2023-09-19T04:17:25;19.80;99.90
26907;DHT22;14472;56.880;16.658;2023-09-19T04:19:51;19.80;99.90
26907;DHT22;14472;56.880;16.658;2023-09-19T04:22:17;19.80;99.90
26907;DHT22;14472;56.880;16.658;2023-09-19T04:24:42;19.80;99.90
26907;DHT22;14472;56.880;16.658;2023-09-19T04:27:08;19.80;99.90
26907;DHT22;14472;56.880;16.658;2023-09-19T04:29:35;19.80;99.90
26907;DHT22;14472;56.880;16.658;2023-09-19T04:32:01;19.80;99.90
26907;DHT22;14472;56.880;16.658;2023-09-19T04:34:29;19.80;99.90
26907;DHT22;14472;56.880;16.658;2023-09-19T04:36:56;19.80;99.90
26907;DHT22;14472;56.880;16.658;2023-09-19T04:39:24;19.80;99.90
26907;DHT22;14472;56.880;16.658;2023-09-19T04:41:51;19.80;99.90
26907;DHT22;14472;56.880;16.658;2023-09-19T04:44:18;19.80;99.90
26907;DHT22;14472;56.880;16.658;2023-09-19T04:46:44;19.80;99.90
26907;DHT22;14472;56.880;16.658;2023-09-19T04:49:11;19.80;99.90
26907;DHT22;14472;56.880;16.658;2023-09-19T04:51:38;19.80;99.90
26907;DHT22;14472;56.880;16.658;2023-09-19T04:54:04;19.80;99.90
26907;DHT22;14472;56.880;16.658;2023-09-19T04:56:30;19.80;99.90
26907;DHT22;14472;56.880;16.658;2023-09-19T04:59:00;19.80;99.90
26907;DHT22;14472;56.880;16.658;2023-09-19T05:01:26;19.80;99.90
26907;DHT22;14472;56.880;16.658;2023-09-19T05:03:52;19.80;99.90
26907;DHT22;14472;56.880;16.658;2023-09-19T05:06:19;19.80;99.90
26907;DHT22;14472;56.880;16.658;2023-09-19T05:08:47;19.80;99.90
26907;DHT22;14472;56.880;16.658;2023-09-19T05:11:19;19.80;99.90
26907;DHT22;14472;56.880;16.658;2023-09-19T05:13:47;19.80;99.90
26907;DHT22;14472;56.880;16.658;2023-09-19T05:16:13;19.80;99.90
26907;DHT22;14472;56.880;16.658;2023-09-19T05:18:39;19.80;99.90
26907;DHT22;14472;56.880;16.658;2023-09-19T05:21:05;19.80;99.90
26907;DHT22;14472;56.880;16.658;2023-09-19T05:23:31;19.80;99.90
26907;DHT22;14472;56.880;16.658;2023-09-19T05:25:56;19.80;99.90
26907;DHT22;14472;56.880;16.658;2023-09-19T05:28:24;19.80;99.90
26907;DHT22;14472;56.880;16.658;2023-09-19T05:30:49;19.80;99.90
26907;DHT22;14472;56.880;16.658;2023-09-19T05:33:15;19.80;99.90
26907;DHT22;14472;56.880;16.658;2023-09-19T05:35:43;19.80;99.90
26907;DHT22;14472;56.880;16.658;2023-09-19T05:38:11;19.80;99.90
26907;DHT22;14472;56.880;16.658;2023-09-19T05:40:38;19.80;99.90
26907;DHT22;14472;56.880;16.658;2023-09-19T05:43:08;19.80;99.90
26907;DHT22;14472;56.880;16.658;2023-09-19T05:45:34;19.80;99.90
26907;DHT22;14472;56.880;16.658;2023-09-19T05:48:08;19.80;99.90
26907;DHT22;14472;56.880;16.658;2023-09-19T05:50:34;19.80;99.90
26907;DHT22;14472;56.880;16.658;2023-09-19T05:53:00;19.90;99.90
26907;DHT22;14472;56.880;16.658;2023-09-19T05:55:25;19.80;99.90
26907;DHT22;14472;56.880;16.658;2023-09-19T05:57:52;19.80;99.90
26907;DHT22;14472;56.880;16.658;2023-09-19T06:00:22;19.90;99.90
26907;DHT22;14472;56.880;16.658;2023-09-19T06:02:55;19.80;99.90
26907;DHT22;14472;56.880;16.658;2023-09-19T06:05:21;19.80;99.90
26907;DHT22;14472;56.880;16.658;2023-09-19T06:07:47;19.80;99.90
26907;DHT22;14472;56.880;16.658;2023-09-19T06:10:13;19.80;99.90
26907;DHT22;14472;56.880;16.658;2023-09-19T06:12:41;19.80;99.90
26907;DHT22;14472;56.880;16.658;2023-09-19T06:15:10;19.80;99.90
26907;DHT22;14472;56.880;16.658;2023-09-19T06:17:47;19.80;99.90
26907;DHT22;14472;56.880;16.658;2023-09-19T06:20:14;19.80;99.90
26907;DHT22;14472;56.880;16.658;2023-09-19T06:22:45;19.80;99.90
26907;DHT22;14472;56.880;16.658;2023-09-19T06:25:12;19.90;99.90
26907;DHT22;14472;56.880;16.658;2023-09-19T06:27:39;19.90;99.90
26907;DHT22;14472;56.880;16.658;2023-09-19T06:30:09;19.90;99.90
26907;DHT22;14472;56.880;16.658;2023-09-19T06:32:35;19.90;99.90
26907;DHT22;14472;56.880;16.658;2023-09-19T06:35:01;19.90;99.90
26907;DHT22;14472;56.880;16.658;2023-09-19T06:37:29;19.90;99.90
26907;DHT22;14472;56.880;16.658;2023-09-19T06:39:54;19.80;99.90
26907;DHT22;14472;56.880;16.658;2023-09-19T06:42:20;19.80;99.90
26907;DHT22;14472;56.880;16.658;2023-09-19T06:44:48;19.80;99.90
26907;DHT22;14472;56.880;16.658;2023-09-19T06:47:14;19.80;99.90
26907;DHT22;14472;56.880;16.658;2023-09-19T06:49:41;19.90;99.90
26907;DHT22;14472;56.880;16.658;2023-09-19T06:52:10;19.90;99.90
26907;DHT22;14472;56.880;16.658;2023-09-19T06:54:35;19.90;99.90
26907;DHT22;14472;56.880;16.658;2023-09-19T06:57:01;19.90;99.90
26907;DHT22;14472;56.880;16.658;2023-09-19T06:59:27;19.90;99.90
26907;DHT22;14472;56.880;16.658;2023-09-19T07:01:53;19.90;99.90
26907;DHT22;14472;56.880;16.658;2023-09-19T07:04:18;20.00;99.90
26907;DHT22;14472;56.880;16.658;2023-09-19T07:06:50;20.00;99.90
26907;DHT22;14472;56.880;16.658;2023-09-19T07:09:17;19.90;99.90
26907;DHT22;14472;56.880;16.658;2023-09-19T07:11:44;20.00;99.90
26907;DHT22;14472;56.880;16.658;2023-09-19T07:14:10;20.00;99.90
26907;DHT22;14472;56.880;16.658;2023-09-19T07:16:38;20.00;99.90
26907;DHT22;14472;56.880;16.658;2023-09-19T07:19:05;20.00;99.90
26907;DHT22;14472;56.880;16.658;2023-09-19T07:21:31;20.10;99.90
26907;DHT22;14472;56.880;16.658;2023-09-19T07:23:59;20.10;99.90
26907;DHT22;14472;56.880;16.658;2023-09-19T07:26:26;20.10;99.90
26907;DHT22;14472;56.880;16.658;2023-09-19T07:28:53;20.10;99.90
26907;DHT22;14472;56.880;16.658;2023-09-19T07:31:19;20.10;99.90
26907;DHT22;14472;56.880;16.658;2023-09-19T07:33:45;20.10;99.90
26907;DHT22;14472;56.880;16.658;2023-09-19T07:36:11;20.10;99.90
26907;DHT22;14472;56.880;16.658;2023-09-19T07:38:40;20.10;99.90
26907;DHT22;14472;56.880;16.658;2023-09-19T07:41:06;20.10;99.90
26907;DHT22;14472;56.880;16.658;2023-09-19T07:43:32;20.20;99.90
26907;DHT22;14472;56.880;16.658;2023-09-19T07:46:03;20.20;99.90
26907;DHT22;14472;56.880;16.658;2023-09-19T07:48:30;20.20;99.90
26907;DHT22;14472;56.880;16.658;2023-09-19T07:50:56;20.10;99.90
26907;DHT22;14472;56.880;16.658;2023-09-19T07:53:21;20.10;99.90
26907;DHT22;14472;56.880;16.658;2023-09-19T07:55:47;20.20;99.90
26907;DHT22;14472;56.880;16.658;2023-09-19T07:58:14;20.20;99.90
26907;DHT22;14472;56.880;16.658;2023-09-19T08:00:41;20.20;99.90
26907;DHT22;14472;56.880;16.658;2023-09-19T08:03:07;20.20;99.90
26907;DHT22;14472;56.880;16.658;2023-09-19T08:05:34;20.20;99.90
26907;DHT22;14472;56.880;16.658;2023-09-19T08:08:00;20.30;99.90
26907;DHT22;14472;56.880;16.658;2023-09-19T08:10:26;20.30;99.90
26907;DHT22;14472;56.880;16.658;2023-09-19T08:12:53;20.30;99.90
26907;DHT22;14472;56.880;16.658;2023-09-19T08:15:23;20.30;99.90
26907;DHT22;14472;56.880;16.658;2023-09-19T08:17:49;20.30;99.90
26907;DHT22;14472;56.880;16.658;2023-09-19T08:20:15;20.30;97.10
26907;DHT22;14472;56.880;16.658;2023-09-19T08:22:53;20.40;96.10
26907;DHT22;14472;56.880;16.658;2023-09-19T08:25:20;20.50;91.70
26907;DHT22;14472;56.880;16.658;2023-09-19T08:27:48;20.50;88.10
26907;DHT22;14472;56.880;16.658;2023-09-19T08:30:22;20.50;74.30
26907;DHT22;14472;56.880;16.658;2023-09-19T08:32:59;20.50;76.10
26907;DHT22;14472;56.880;16.658;2023-09-19T08:35:25;20.50;74.30
26907;DHT22;14472;56.880;16.658;2023-09-19T08:37:51;20.50;67.20
26907;DHT22;14472;56.880;16.658;2023-09-19T08:40:17;20.60;66.00
26907;DHT22;14472;56.880;16.658;2023-09-19T08:42:54;20.60;58.80
26907;DHT22;14472;56.880;16.658;2023-09-19T08:45:21;20.60;29.20
26907;DHT22;14472;56.880;16.658;2023-09-19T08:50:30;20.70;7.40
26907;DHT22;14472;56.880;16.658;2023-09-19T08:53:01;20.70;4.50
26907;DHT22;14472;56.880;16.658;2023-09-19T08:55:29;20.70;1.30
26907;DHT22;14472;56.880;16.658;2023-09-19T08:58:17;20.70;1.00
26907;DHT22;14472;56.880;16.658;2023-09-19T09:00:47;20.80;1.00
26907;DHT22;14472;56.880;16.658;2023-09-19T09:03:15;20.80;1.00
26907;DHT22;14472;56.880;16.658;2023-09-19T09:05:45;20.90;1.00
26907;DHT22;14472;56.880;16.658;2023-09-19T09:08:12;20.80;1.00
26907;DHT22;14472;56.880;16.658;2023-09-19T09:10:39;20.90;1.00
26907;DHT22;14472;56.880;16.658;2023-09-19T09:13:06;20.90;1.00
26907;DHT22;14472;56.880;16.658;2023-09-19T09:15:35;21.00;1.00
26907;DHT22;14472;56.880;16.658;2023-09-19T09:18:02;21.00;1.00
26907;DHT22;14472;56.880;16.658;2023-09-19T09:20:30;21.10;1.00
26907;DHT22;14472;56.880;16.658;2023-09-19T09:22:57;21.00;1.00
26907;DHT22;14472;56.880;16.658;2023-09-19T09:25:51;21.00;1.00
26907;DHT22;14472;56.880;16.658;2023-09-19T09:28:23;21.10;1.00
26907;DHT22;14472;56.880;16.658;2023-09-19T09:30:49;21.20;1.00
26907;DHT22;14472;56.880;16.658;2023-09-19T09:33:16;21.30;1.00
26907;DHT22;14472;56.880;16.658;2023-09-19T09:35:51;21.20;1.00
26907;DHT22;14472;56.880;16.658;2023-09-19T09:38:21;21.20;1.00
26907;DHT22;14472;56.880;16.658;2023-09-19T09:40:52;21.30;1.00
26907;DHT22;14472;56.880;16.658;2023-09-19T09:43:44;21.20;1.00
26907;DHT22;14472;56.880;16.658;2023-09-19T09:46:19;21.30;1.00
26907;DHT22;14472;56.880;16.658;2023-09-19T09:49:02;21.30;1.00
26907;DHT22;14472;56.880;16.658;2023-09-19T09:52:05;21.30;1.00
26907;DHT22;14472;56.880;16.658;2023-09-19T09:55:02;21.30;1.00
26907;DHT22;14472;56.880;16.658;2023-09-19T09:57:33;21.30;1.00
26907;DHT22;14472;56.880;16.658;2023-09-19T10:00:00;21.30;1.00
26907;DHT22;14472;56.880;16.658;2023-09-19T10:02:39;21.30;1.00
26907;DHT22;14472;56.880;16.658;2023-09-19T10:05:18;21.30;1.00
26907;DHT22;14472;56.880;16.658;2023-09-19T10:07:54;21.30;1.00
26907;DHT22;14472;56.880;16.658;2023-09-19T10:10:36;21.30;1.00
26907;DHT22;14472;56.880;16.658;2023-09-19T10:13:09;21.20;1.00
26907;DHT22;14472;56.880;16.658;2023-09-19T10:15:39;21.30;1.00
26907;DHT22;14472;56.880;16.658;2023-09-19T10:18:11;21.20;1.00
26907;DHT22;14472;56.880;16.658;2023-09-19T10:20:46;21.30;1.00
26907;DHT22;14472;56.880;16.658;2023-09-19T10:23:15;21.20;1.00
26907;DHT22;14472;56.880;16.658;2023-09-19T10:25:48;21.20;1.00
26907;DHT22;14472;56.880;16.658;2023-09-19T10:28:15;21.20;1.00
26907;DHT22;14472;56.880;16.658;2023-09-19T10:30:44;21.20;1.00
26907;DHT22;14472;56.880;16.658;2023-09-19T10:33:15;21.10;1.00
26907;DHT22;14472;56.880;16.658;2023-09-19T10:35:46;21.10;1.00
26907;DHT22;14472;56.880;16.658;2023-09-19T10:38:14;21.10;1.00
26907;DHT22;14472;56.880;16.658;2023-09-19T10:40:44;21.00;1.00
26907;DHT22;14472;56.880;16.658;2023-09-19T10:43:16;21.10;1.00
26907;DHT22;14472;56.880;16.658;2023-09-19T10:45:47;21.10;1.00
26907;DHT22;14472;56.880;16.658;2023-09-19T10:48:15;21.00;1.00
26907;DHT22;14472;56.880;16.658;2023-09-19T10:50:51;21.10;1.00
26907;DHT22;14472;56.880;16.658;2023-09-19T10:53:18;21.10;1.00
26907;DHT22;14472;56.880;16.658;2023-09-19T10:55:52;21.00;1.00
26907;DHT22;14472;56.880;16.658;2023-09-19T10:58:27;21.00;1.00
26907;DHT22;14472;56.880;16.658;2023-09-19T11:00:58;21.00;1.00
26907;DHT22;14472;56.880;16.658;2023-09-19T11:03:31;20.90;1.00
26907;DHT22;14472;56.880;16.658;2023-09-19T11:06:27;20.90;1.00
26907;DHT22;14472;56.880;16.658;2023-09-19T11:09:02;20.90;1.00
26907;DHT22;14472;56.880;16.658;2023-09-19T11:30:41;20.40;1.00
26907;DHT22;14472;56.880;16.658;2023-09-19T11:33:27;20.50;1.00
26907;DHT22;14472;56.880;16.658;2023-09-19T11:43:53;20.50;1.00
26907;DHT22;14472;56.880;16.658;2023-09-19T11:46:21;20.50;1.00
26907;DHT22;14472;56.880;16.658;2023-09-19T11:48:51;20.50;1.00
26907;DHT22;14472;56.880;16.658;2023-09-19T11:51:22;20.50;1.00
26907;DHT22;14472;56.880;16.658;2023-09-19T11:53:50;20.50;1.00
26907;DHT22;14472;56.880;16.658;2023-09-19T11:56:18;20.50;1.00
26907;DHT22;14472;56.880;16.658;2023-09-19T11:58:49;20.50;1.00
26907;DHT22;14472;56.880;16.658;2023-09-19T12:01:26;20.60;1.00
26907;DHT22;14472;56.880;16.658;2023-09-19T12:03:56;20.50;1.00
26907;DHT22;14472;56.880;16.658;2023-09-19T12:06:24;20.50;1.00
26907;DHT22;14472;56.880;16.658;2023-09-19T12:08:50;20.50;1.00
26907;DHT22;14472;56.880;16.658;2023-09-19T12:11:22;20.60;1.00
26907;DHT22;14472;56.880;16.658;2023-09-19T12:13:49;20.60;1.00
26907;DHT22;14472;56.880;16.658;2023-09-19T12:16:16;20.70;1.00
26907;DHT22;14472;56.880;16.658;2023-09-19T12:18:45;20.70;1.00
26907;DHT22;14472;56.880;16.658;2023-09-19T12:24:17;20.90;1.00
26907;DHT22;14472;56.880;16.658;2023-09-19T12:26:45;20.90;1.00
26907;DHT22;14472;56.880;16.658;2023-09-19T12:29:18;20.90;1.00
26907;DHT22;14472;56.880;16.658;2023-09-19T12:32:02;20.80;1.00
26907;DHT22;14472;56.880;16.658;2023-09-19T12:34:30;20.70;1.00
26907;DHT22;14472;56.880;16.658;2023-09-19T12:37:10;20.50;1.00
26907;DHT22;14472;56.880;16.658;2023-09-19T12:39:53;20.40;1.00
26907;DHT22;14472;56.880;16.658;2023-09-19T12:42:24;20.20;1.00
26907;DHT22;14472;56.880;16.658;2023-09-19T12:44:54;20.10;1.00
26907;DHT22;14472;56.880;16.658;2023-09-19T12:47:23;20.10;1.00
26907;DHT22;14472;56.880;16.658;2023-09-19T12:50:16;20.20;1.00
26907;DHT22;14472;56.880;16.658;2023-09-19T12:52:52;20.10;1.00
26907;DHT22;14472;56.880;16.658;2023-09-19T12:55:29;20.00;1.00
26907;DHT22;14472;56.880;16.658;2023-09-19T12:58:13;19.90;1.00
26907;DHT22;14472;56.880;16.658;2023-09-19T13:00:45;19.70;1.00
26907;DHT22;14472;56.880;16.658;2023-09-19T13:06:01;20.00;1.00
26907;DHT22;14472;56.880;16.658;2023-09-19T13:08:39;20.00;1.00
26907;DHT22;14472;56.880;16.658;2023-09-19T13:11:17;20.00;1.00
26907;DHT22;14472;56.880;16.658;2023-09-19T13:13:49;20.20;1.00
26907;DHT22;14472;56.880;16.658;2023-09-19T13:16:20;20.20;1.00
26907;DHT22;14472;56.880;16.658;2023-09-19T13:18:53;20.30;1.00
26907;DHT22;14472;56.880;16.658;2023-09-19T13:21:39;20.30;1.00
26907;DHT22;14472;56.880;16.658;2023-09-19T13:24:23;20.50;1.00
26907;DHT22;14472;56.880;16.658;2023-09-19T13:26:51;20.50;1.00
26907;DHT22;14472;56.880;16.658;2023-09-19T13:29:17;20.40;1.00
26907;DHT22;14472;56.880;16.658;2023-09-19T13:31:51;20.50;1.00
26907;DHT22;14472;56.880;16.658;2023-09-19T13:34:19;20.60;1.00
26907;DHT22;14472;56.880;16.658;2023-09-19T13:36:45;20.60;1.00
26907;DHT22;14472;56.880;16.658;2023-09-19T13:39:14;20.60;1.00
26907;DHT22;14472;56.880;16.658;2023-09-19T13:41:41;20.60;1.00
26907;DHT22;14472;56.880;16.658;2023-09-19T13:44:08;20.60;1.00
26907;DHT22;14472;56.880;16.658;2023-09-19T13:46:36;20.60;1.00
26907;DHT22;14472;56.880;16.658;2023-09-19T13:49:02;20.60;1.00
26907;DHT22;14472;56.880;16.658;2023-09-19T13:51:32;20.80;1.00
26907;DHT22;14472;56.880;16.658;2023-09-19T13:53:58;20.80;1.00
26907;DHT22;14472;56.880;16.658;2023-09-19T13:56:25;20.80;1.00
26907;DHT22;14472;56.880;16.658;2023-09-19T13:58:55;20.80;1.00
26907;DHT22;14472;56.880;16.658;2023-09-19T14:01:21;20.70;1.00
26907;DHT22;14472;56.880;16.658;2023-09-19T14:03:47;20.80;1.00
26907;DHT22;14472;56.880;16.658;2023-09-19T14:06:15;20.70;1.00
26907;DHT22;14472;56.880;16.658;2023-09-19T14:08:41;20.70;1.00
26907;DHT22;14472;56.880;16.658;2023-09-19T14:11:08;20.60;1.00
26907;DHT22;14472;56.880;16.658;2023-09-19T14:13:33;20.60;1.00
26907;DHT22;14472;56.880;16.658;2023-09-19T14:16:07;20.60;1.00
26907;DHT22;14472;56.880;16.658;2023-09-19T14:18:34;20.50;1.00
26907;DHT22;14472;56.880;16.658;2023-09-19T14:21:06;20.50;1.00
26907;DHT22;14472;56.880;16.658;2023-09-19T14:23:39;20.60;1.00
26907;DHT22;14472;56.880;16.658;2023-09-19T14:26:07;20.50;1.00
26907;DHT22;14472;56.880;16.658;2023-09-19T14:28:33;20.50;1.00
26907;DHT22;14472;56.880;16.658;2023-09-19T14:31:10;20.30;1.00
26907;DHT22;14472;56.880;16.658;2023-09-19T14:33:36;20.30;1.00
26907;DHT22;14472;56.880;16.658;2023-09-19T14:36:07;20.30;1.00
26907;DHT22;14472;56.880;16.658;2023-09-19T14:38:35;20.20;1.00
26907;DHT22;14472;56.880;16.658;2023-09-19T14:41:02;20.30;1.00
26907;DHT22;14472;56.880;16.658;2023-09-19T14:43:28;20.20;1.00
26907;DHT22;14472;56.880;16.658;2023-09-19T14:46:07;20.20;1.00
26907;DHT22;14472;56.880;16.658;2023-09-19T14:48:36;20.10;1.00
26907;DHT22;14472;56.880;16.658;2023-09-19T14:51:06;20.10;1.00
26907;DHT22;14472;56.880;16.658;2023-09-19T14:53:35;20.10;1.00
26907;DHT22;14472;56.880;16.658;2023-09-19T14:56:04;20.10;1.00
26907;DHT22;14472;56.880;16.658;2023-09-19T14:58:33;20.10;1.00
26907;DHT22;14472;56.880;16.658;2023-09-19T15:01:07;20.10;1.00
26907;DHT22;14472;56.880;16.658;2023-09-19T15:03:33;20.20;1.00
26907;DHT22;14472;56.880;16.658;2023-09-19T15:06:04;20.10;1.00
26907;DHT22;14472;56.880;16.658;2023-09-19T15:08:31;20.00;1.00
26907;DHT22;14472;56.880;16.658;2023-09-19T15:10:57;20.00;1.00
26907;DHT22;14472;56.880;16.658;2023-09-19T15:13:24;20.10;1.00
26907;DHT22;14472;56.880;16.658;2023-09-19T15:15:59;20.00;1.00
26907;DHT22;14472;56.880;16.658;2023-09-19T15:18:25;19.90;1.00
26907;DHT22;14472;56.880;16.658;2023-09-19T15:20:51;19.80;1.00
26907;DHT22;14472;56.880;16.658;2023-09-19T15:23:16;19.80;1.00
26907;DHT22;14472;56.880;16.658;2023-09-19T15:25:50;19.90;1.00
26907;DHT22;14472;56.880;16.658;2023-09-19T15:28:16;19.80;1.00
26907;DHT22;14472;56.880;16.658;2023-09-19T15:30:42;19.80;1.00
26907;DHT22;14472;56.880;16.658;2023-09-19T15:33:08;19.80;1.00
26907;DHT22;14472;56.880;16.658;2023-09-19T15:35:33;19.80;1.00
26907;DHT22;14472;56.880;16.658;2023-09-19T15:38:03;19.80;1.00
26907;DHT22;14472;56.880;16.658;2023-09-19T15:40:28;19.70;1.00
26907;DHT22;14472;56.880;16.658;2023-09-19T15:42:54;19.70;1.00
26907;DHT22;14472;56.880;16.658;2023-09-19T15:45:23;19.70;1.00
26907;DHT22;14472;56.880;16.658;2023-09-19T15:47:49;19.70;1.00
26907;DHT22;14472;56.880;16.658;2023-09-19T15:50:15;19.60;1.00
26907;DHT22;14472;56.880;16.658;2023-09-19T15:52:41;19.60;1.00
26907;DHT22;14472;56.880;16.658;2023-09-19T15:55:07;19.60;1.00
26907;DHT22;14472;56.880;16.658;2023-09-19T15:57:36;19.50;1.00
26907;DHT22;14472;56.880;16.658;2023-09-19T16:00:03;19.50;1.00
26907;DHT22;14472;56.880;16.658;2023-09-19T16:02:30;19.50;1.00
26907;DHT22;14472;56.880;16.658;2023-09-19T16:04:57;19.40;1.00
26907;DHT22;14472;56.880;16.658;2023-09-19T16:07:23;19.40;1.00
26907;DHT22;14472;56.880;16.658;2023-09-19T16:09:49;19.40;1.00
26907;DHT22;14472;56.880;16.658;2023-09-19T16:12:15;19.40;1.00
26907;DHT22;14472;56.880;16.658;2023-09-19T16:14:40;19.30;1.00
26907;DHT22;14472;56.880;16.658;2023-09-19T16:17:08;19.30;1.00
26907;DHT22;14472;56.880;16.658;2023-09-19T16:19:36;19.30;1.00